Time;durP1;ratioP1;P1;durP2;ratioP2;P2;SDS_P1;SDS_P2;PMS_P1;PMS_P2;Temp;Humidity;BMP_temperature;BMP_pressure;BME280_temperature;BME280_humidity;BME280_pressure;Samples;Min_cycle;Max_cycle;Signal;HPM_P1;HPM_P2
2022/04/13 00:00:32;;;;;;;;;2.00;1.00;;;;;-146.67;100.00;57155.34;5081280;28;61948;-75
2022/04/13 00:02:58;;;;;;;;;1.00;1.00;;;;;-146.67;100.00;57155.34;5086678;27;62511;-75
2022/04/13 00:05:24;;;;;;;;;0.75;0.75;;;;;-146.67;100.00;57155.34;5101193;27;61969;-75
2022/04/13 00:07:50;;;;;;;;;3.25;2.00;;;;;-146.67;100.00;57155.34;5087031;27;61715;-75
2022/04/13 00:10:16;;;;;;;;;1.75;1.00;;;;;-146.67;100.00;57155.34;5082603;28;62167;-76
2022/04/13 00:12:42;;;;;;;;;2.75;2.00;;;;;-146.67;100.00;57155.34;5081706;28;63010;-76
2022/04/13 00:15:09;;;;;;;;;1.00;1.00;;;;;-146.67;100.00;57155.34;5097794;27;61664;-75
2022/04/13 00:17:36;;;;;;;;;1.75;1.00;;;;;-146.67;100.00;57155.34;5082053;28;61812;-75
2022/04/13 00:20:03;;;;;;;;;2.00;2.00;;;;;-146.67;100.00;57155.34;5082175;28;62340;-75
2022/04/13 00:22:29;;;;;;;;;3.00;2.00;;;;;-146.67;100.00;57155.34;5081654;28;61973;-76
2022/04/13 00:24:54;;;;;;;;;4.00;2.25;;;;;-146.67;100.00;57155.34;5082130;28;62236;-75
2022/04/13 00:27:20;;;;;;;;;3.50;2.00;;;;;-146.67;100.00;57155.34;5082320;27;62279;-75
2022/04/13 00:29:46;;;;;;;;;2.50;2.00;;;;;-146.67;100.00;57155.34;5082250;27;62162;-75
2022/04/13 00:32:11;;;;;;;;;1.75;1.00;;;;;-146.67;100.00;57155.34;5089873;27;62738;-75
2022/04/13 00:34:37;;;;;;;;;1.00;1.00;;;;;-146.67;100.00;57155.34;5082141;27;61874;-75
2022/04/13 00:37:03;;;;;;;;;2.00;2.00;;;;;-146.67;100.00;57155.34;5095074;27;61890;-76
2022/04/13 00:39:29;;;;;;;;;1.00;1.00;;;;;-146.67;100.00;57155.34;5082306;28;62045;-75
2022/04/13 00:41:59;;;;;;;;;2.00;2.00;;;;;-146.67;100.00;57155.34;5067795;28;61775;-75
2022/04/13 00:44:30;;;;;;;;;1.00;1.00;;;;;-146.67;100.00;57155.34;5076919;28;61842;-75
2022/04/13 00:46:57;;;;;;;;;1.00;1.00;;;;;-146.67;100.00;57155.34;5100550;27;62019;-75
2022/04/13 00:49:24;;;;;;;;;2.25;2.25;;;;;-146.67;100.00;57155.34;5094162;27;61896;-75
2022/04/13 00:51:50;;;;;;;;;2.00;2.00;;;;;-146.67;100.00;57155.34;5061446;28;61758;-75
2022/04/13 00:54:18;;;;;;;;;4.00;1.75;;;;;-146.67;100.00;57155.34;5080169;28;62393;-75
2022/04/13 00:56:47;;;;;;;;;4.75;1.00;;;;;-146.67;100.00;57155.34;5081875;28;62031;-75
2022/04/13 00:59:13;;;;;;;;;1.75;1.75;;;;;-146.67;100.00;57155.34;5081563;28;62355;-75
2022/04/13 01:01:42;;;;;;;;;2.00;2.00;;;;;-146.67;100.00;57155.34;5081558;27;62807;-75
2022/04/13 01:04:11;;;;;;;;;1.75;1.75;;;;;-146.67;100.00;57155.34;5080937;28;61719;-75
2022/04/13 01:06:38;;;;;;;;;2.25;1.25;;;;;-146.67;100.00;57155.34;5081989;28;62258;-75
2022/04/13 01:09:03;;;;;;;;;4.50;2.00;;;;;-146.67;100.00;57155.34;5096964;27;62050;-75
2022/04/13 01:11:29;;;;;;;;;4.00;1.50;;;;;-146.67;100.00;57155.34;5096340;27;63721;-75
2022/04/13 01:13:55;;;;;;;;;1.00;1.00;;;;;-146.67;100.00;57155.34;5081174;27;61846;-75
2022/04/13 01:16:22;;;;;;;;;3.00;3.00;;;;;-146.67;100.00;57155.34;5080904;28;61895;-75
2022/04/13 01:18:48;;;;;;;;;2.00;2.00;;;;;-146.67;100.00;57155.34;5084401;27;62113;-75
2022/04/13 01:21:15;;;;;;;;;2.00;1.50;;;;;-146.67;100.00;57155.34;5084280;27;61874;-75
2022/04/13 01:23:41;;;;;;;;;2.50;2.50;;;;;-146.67;100.00;57155.34;5085109;27;61874;-75
2022/04/13 01:26:09;;;;;;;;;2.00;2.00;;;;;-146.67;100.00;57155.34;5084940;27;61825;-75
2022/04/13 01:28:35;;;;;;;;;1.00;1.00;;;;;-146.67;100.00;57155.34;5085137;28;61694;-75
2022/04/13 01:31:00;;;;;;;;;2.25;0.75;;;;;-146.67;100.00;57155.34;5084351;27;61849;-75
2022/04/13 01:33:28;;;;;;;;;1.25;1.25;;;;;-146.67;100.00;57155.34;5084241;27;61922;-75
2022/04/13 01:35:56;;;;;;;;;8.00;2.75;;;;;-146.67;100.00;57155.34;5085109;27;61952;-75
2022/04/13 01:38:21;;;;;;;;;4.25;1.00;;;;;-146.67;100.00;57155.34;5084445;27;62199;-75
2022/04/13 01:40:49;;;;;;;;;4.00;1.50;;;;;-146.67;100.00;57155.34;5074037;27;61873;-75
2022/04/13 01:43:14;;;;;;;;;4.00;1.75;;;;;-146.67;100.00;57155.34;5082098;28;62191;-75
2022/04/13 01:45:40;;;;;;;;;3.25;2.00;;;;;-146.67;100.00;57155.34;5100238;27;62091;-75
2022/04/13 01:48:09;;;;;;;;;4.50;1.50;;;;;-146.67;100.00;57155.34;5084506;27;61959;-75
2022/04/13 01:50:34;;;;;;;;;3.00;1.75;;;;;-146.67;100.00;57155.34;5084098;28;61809;-75
2022/04/13 01:52:59;;;;;;;;;3.00;1.50;;;;;-146.67;100.00;57155.34;5090774;27;61717;-75
2022/04/13 01:55:25;;;;;;;;;2.25;1.00;;;;;-146.67;100.00;57155.34;5102823;27;61769;-76
2022/04/13 01:57:50;;;;;;;;;2.75;2.00;;;;;-146.67;100.00;57155.34;5084606;27;61804;-75
2022/04/13 02:00:16;;;;;;;;;3.00;2.00;;;;;-146.67;100.00;57155.34;5083985;27;62514;-75
2022/04/13 02:02:41;;;;;;;;;3.00;3.00;;;;;-146.67;100.00;57155.34;5099645;27;61924;-75
2022/04/13 02:05:08;;;;;;;;;3.00;3.00;;;;;-146.67;100.00;57155.34;5098073;27;61928;-75
2022/04/13 02:07:34;;;;;;;;;1.00;1.00;;;;;-146.67;100.00;57155.34;5084764;27;62016;-75
2022/04/13 02:09:59;;;;;;;;;4.75;3.00;;;;;-146.67;100.00;57155.34;5082924;27;61747;-75
2022/04/13 02:12:25;;;;;;;;;2.00;2.00;;;;;-146.67;100.00;57155.34;5099497;27;61765;-76
2022/04/13 02:14:50;;;;;;;;;2.00;2.00;;;;;-146.67;100.00;57155.34;5084363;27;61758;-75
2022/04/13 02:17:16;;;;;;;;;6.25;3.00;;;;;-146.67;100.00;57155.34;5084267;27;61971;-75
2022/04/13 02:19:45;;;;;;;;;2.00;2.00;;;;;-146.67;100.00;57155.34;5083582;28;61978;-75
2022/04/13 02:22:11;;;;;;;;;2.00;2.00;;;;;-146.67;100.00;57155.34;5083975;27;62076;-75
2022/04/13 02:24:40;;;;;;;;;2.25;2.25;;;;;-146.67;100.00;57155.34;5090427;27;62230;-75
2022/04/13 02:27:09;;;;;;;;;3.00;1.75;;;;;-146.67;100.00;57155.34;5105063;27;61802;-75
2022/04/13 02:29:36;;;;;;;;;2.00;1.25;;;;;-146.67;100.00;57155.34;5087738;27;62739;-75
2022/04/13 02:32:03;;;;;;;;;2.00;2.00;;;;;-146.67;100.00;57155.34;5083401;27;62118;-76
2022/04/13 02:34:29;;;;;;;;;2.00;2.00;;;;;-146.67;100.00;57155.34;5095814;27;61866;-75
2022/04/13 02:36:55;;;;;;;;;8.50;3.00;;;;;-146.67;100.00;57155.34;5063499;28;61819;-75
2022/04/13 02:39:20;;;;;;;;;4.25;2.75;;;;;-146.67;100.00;57155.34;5081713;27;61768;-75
2022/04/13 02:41:46;;;;;;;;;4.25;3.00;;;;;-146.67;100.00;57155.34;5069710;28;62026;-75
2022/04/13 02:44:11;;;;;;;;;3.75;2.25;;;;;-146.67;100.00;57155.34;5099322;27;62033;-75
2022/04/13 02:46:37;;;;;;;;;2.00;2.00;;;;;-146.67;100.00;57155.34;5082270;28;61698;-75
2022/04/13 02:49:02;;;;;;;;;3.00;3.00;;;;;-146.67;100.00;57155.34;5082593;27;61868;-75
2022/04/13 02:51:27;;;;;;;;;3.00;2.00;;;;;-146.67;100.00;57155.34;5083438;27;61798;-75
2022/04/13 02:53:53;;;;;;;;;4.00;2.00;;;;;-146.67;100.00;57155.34;5083531;27;61860;-75
2022/04/13 02:56:18;;;;;;;;;2.75;2.00;;;;;-146.67;100.00;57155.34;5084066;27;62050;-75
2022/04/13 02:58:44;;;;;;;;;5.00;2.00;;;;;-146.67;100.00;57155.34;5082365;28;61777;-75
2022/04/13 03:01:09;;;;;;;;;3.00;2.00;;;;;-146.67;100.00;57155.34;5083711;28;61933;-76
2022/04/13 03:03:35;;;;;;;;;3.50;3.00;;;;;-146.67;100.00;57155.34;5083220;28;61748;-75
2022/04/13 03:06:01;;;;;;;;;5.00;2.00;;;;;-146.67;100.00;57155.34;5084028;27;62060;-75
2022/04/13 03:08:26;;;;;;;;;3.00;3.00;;;;;-146.67;100.00;57155.34;5081220;27;63822;-75
2022/04/13 03:10:52;;;;;;;;;4.75;3.00;;;;;-146.67;100.00;57155.34;5083429;27;61785;-75
2022/04/13 03:13:18;;;;;;;;;2.75;2.75;;;;;-146.67;100.00;57155.34;5083422;27;61833;-75
2022/04/13 03:15:43;;;;;;;;;3.00;2.25;;;;;-146.67;100.00;57155.34;5083619;28;61743;-75
2022/04/13 03:18:09;;;;;;;;;4.00;4.00;;;;;-146.67;100.00;57155.34;5082716;28;62410;-75
2022/04/13 03:20:35;;;;;;;;;2.00;2.00;;;;;-146.67;100.00;57155.34;5081933;28;61833;-75
2022/04/13 03:23:03;;;;;;;;;6.00;3.00;;;;;-146.67;100.00;57155.34;5097183;27;61888;-75
2022/04/13 03:25:29;;;;;;;;;3.50;3.50;;;;;-146.67;100.00;57155.34;5083422;28;61805;-75
2022/04/13 03:27:54;;;;;;;;;4.00;3.00;;;;;-146.67;100.00;57155.34;5082601;28;62076;-75
2022/04/13 03:30:22;;;;;;;;;3.25;3.25;;;;;-146.67;100.00;57155.34;5083319;28;61780;-75
2022/04/13 03:32:47;;;;;;;;;3.00;3.00;;;;;-146.67;100.00;57155.34;5082755;28;61738;-75
2022/04/13 03:35:12;;;;;;;;;4.00;3.50;;;;;-146.67;100.00;57155.34;5083480;28;61742;-75
2022/04/13 03:37:39;;;;;;;;;4.75;3.00;;;;;-146.67;100.00;57155.34;5074922;27;62436;-76
2022/04/13 03:40:07;;;;;;;;;2.25;2.25;;;;;-146.67;100.00;57155.34;5079249;28;61913;-75
2022/04/13 03:42:37;;;;;;;;;5.25;2.25;;;;;-146.67;100.00;57155.34;5077345;28;61839;-75
2022/04/13 03:45:04;;;;;;;;;2.00;2.00;;;;;-146.67;100.00;57155.34;5098698;27;62115;-75
2022/04/13 03:47:29;;;;;;;;;3.50;2.50;;;;;-146.67;100.00;57155.34;5081927;27;62123;-75
2022/04/13 03:49:55;;;;;;;;;4.25;4.25;;;;;-146.67;100.00;57155.34;5082600;27;62258;-76
2022/04/13 03:52:20;;;;;;;;;5.00;3.50;;;;;-146.67;100.00;57155.34;5084789;27;61774;-75
2022/04/13 03:54:47;;;;;;;;;3.50;2.00;;;;;-146.67;100.00;57155.34;5083093;27;62159;-75
2022/04/13 03:57:14;;;;;;;;;5.00;4.00;;;;;-146.67;100.00;57155.34;5082130;28;61947;-75
2022/04/13 03:59:40;;;;;;;;;2.50;2.50;;;;;-146.67;100.00;57155.34;5081296;28;61851;-75
2022/04/13 04:02:06;;;;;;;;;3.50;3.50;;;;;-146.67;100.00;57155.34;5082257;27;62004;-76
2022/04/13 04:04:31;;;;;;;;;6.25;5.00;;;;;-146.67;100.00;57155.34;5082830;28;62148;-75
2022/04/13 04:06:56;;;;;;;;;5.50;4.50;;;;;-146.67;100.00;57155.34;5081699;27;61929;-75
2022/04/13 04:09:22;;;;;;;;;5.75;5.00;;;;;-146.67;100.00;57155.34;5082460;28;61974;-75
2022/04/13 04:11:47;;;;;;;;;6.25;5.00;;;;;-146.67;100.00;57155.34;5082425;27;62022;-75
2022/04/13 04:14:13;;;;;;;;;5.50;5.50;;;;;-146.67;100.00;57155.34;5081392;28;61877;-75
2022/04/13 04:16:38;;;;;;;;;5.00;5.00;;;;;-146.67;100.00;57155.34;5081899;27;62463;-75
2022/04/13 04:19:04;;;;;;;;;4.50;4.00;;;;;-146.67;100.00;57155.34;5082233;28;61973;-75
2022/04/13 04:21:29;;;;;;;;;7.00;5.00;;;;;-146.67;100.00;57155.34;5087506;27;61766;-75
2022/04/13 04:23:54;;;;;;;;;5.25;3.75;;;;;-146.67;100.00;57155.34;5080795;28;61962;-75
2022/04/13 04:26:20;;;;;;;;;4.00;4.00;;;;;-146.67;100.00;57155.34;5080589;28;63661;-76
2022/04/13 04:28:45;;;;;;;;;7.00;4.50;;;;;-146.67;100.00;57155.34;5082026;27;61845;-75
2022/04/13 04:31:11;;;;;;;;;5.00;5.00;;;;;-146.67;100.00;57155.34;5082945;27;61705;-76
2022/04/13 04:33:36;;;;;;;;;4.00;4.00;;;;;-146.67;100.00;57155.34;5082462;28;62173;-75
2022/04/13 04:36:02;;;;;;;;;4.25;4.00;;;;;-146.67;100.00;57155.34;5075098;27;61917;-75
2022/04/13 04:38:30;;;;;;;;;7.50;4.00;;;;;-146.67;100.00;57155.34;5073771;27;61836;-75
2022/04/13 04:40:56;;;;;;;;;7.25;6.00;;;;;-146.67;100.00;57155.34;5071968;27;61985;-75
2022/04/13 04:43:21;;;;;;;;;5.50;3.00;;;;;-146.67;100.00;57155.34;5094605;27;62004;-75
2022/04/13 04:45:47;;;;;;;;;6.75;5.50;;;;;-146.67;100.00;57155.34;5061415;28;62071;-75
2022/04/13 04:48:12;;;;;;;;;5.50;4.00;;;;;-146.67;100.00;57155.34;5079209;28;62217;-75
2022/04/13 04:50:38;;;;;;;;;4.75;4.75;;;;;-146.67;100.00;57155.34;5080264;28;61853;-75
2022/04/13 04:53:03;;;;;;;;;4.00;4.00;;;;;-146.67;100.00;57155.34;5093987;27;61790;-75
2022/04/13 04:55:29;;;;;;;;;4.25;4.25;;;;;-146.67;100.00;57155.34;5099794;27;62555;-75
2022/04/13 04:57:55;;;;;;;;;12.25;6.00;;;;;-146.67;100.00;57155.34;5085570;27;62101;-75
2022/04/13 05:00:21;;;;;;;;;4.00;4.00;;;;;-146.67;100.00;57155.34;5085416;27;61779;-75
2022/04/13 05:02:48;;;;;;;;;3.25;3.25;;;;;-146.67;100.00;57155.34;5085320;28;62502;-76
2022/04/13 05:05:15;;;;;;;;;5.25;4.00;;;;;-146.67;100.00;57155.34;5084014;28;61832;-76
2022/04/13 05:07:41;;;;;;;;;11.50;6.25;;;;;-146.67;100.00;57155.34;5084834;28;61906;-76
2022/04/13 05:10:07;;;;;;;;;6.50;6.00;;;;;-146.67;100.00;57155.34;5087903;27;61811;-75
2022/04/13 05:12:42;;;;;;;;;6.00;6.00;;;;;-146.67;100.00;57155.34;5084167;28;61946;-76
2022/04/13 05:15:08;;;;;;;;;5.00;5.00;;;;;-146.67;100.00;57155.34;5079677;28;64021;-76
2022/04/13 05:17:33;;;;;;;;;5.50;5.50;;;;;-146.67;100.00;57155.34;5084923;28;62028;-75
2022/04/13 05:19:59;;;;;;;;;7.50;6.00;;;;;-146.67;100.00;57155.34;5089583;27;61900;-76
2022/04/13 05:22:24;;;;;;;;;3.50;3.50;;;;;-146.67;100.00;57155.34;5100203;27;61952;-77
2022/04/13 05:24:51;;;;;;;;;8.50;6.00;;;;;-146.67;100.00;57155.34;5099753;27;63813;-76
2022/04/13 05:27:16;;;;;;;;;7.25;7.25;;;;;-146.67;100.00;57155.34;5084798;27;62127;-76
2022/04/13 05:29:41;;;;;;;;;9.00;5.50;;;;;-146.67;100.00;57155.34;5085374;27;61841;-76
2022/04/13 05:32:07;;;;;;;;;7.25;5.25;;;;;-146.67;100.00;57155.34;5089697;27;62264;-76
2022/04/13 05:34:33;;;;;;;;;8.00;4.50;;;;;-146.67;100.00;57155.34;5083738;27;62124;-76
2022/04/13 05:36:58;;;;;;;;;8.25;6.75;;;;;-146.67;100.00;57155.34;5081335;28;61991;-76
2022/04/13 05:39:25;;;;;;;;;9.00;9.00;;;;;-146.67;100.00;57155.34;5082789;27;62094;-75
2022/04/13 05:41:50;;;;;;;;;4.50;4.50;;;;;-146.67;100.00;57155.34;5081572;27;61911;-75
2022/04/13 05:44:16;;;;;;;;;7.50;7.25;;;;;-146.67;100.00;57155.34;5082623;27;61863;-75
2022/04/13 05:46:42;;;;;;;;;6.50;6.50;;;;;-146.67;100.00;57155.34;5099258;27;61895;-75
2022/04/13 05:49:07;;;;;;;;;8.00;8.00;;;;;-146.67;100.00;57155.34;5082141;28;62389;-75
2022/04/13 05:51:32;;;;;;;;;5.00;5.00;;;;;-146.67;100.00;57155.34;5082502;28;62297;-75
2022/04/13 05:53:58;;;;;;;;;18.50;17.00;;;;;-146.67;100.00;57155.34;5082781;27;61726;-75
2022/04/13 05:56:23;;;;;;;;;18.75;14.25;;;;;-146.67;100.00;57155.34;5098841;27;61817;-76
2022/04/13 05:58:49;;;;;;;;;5.00;5.00;;;;;-146.67;100.00;57155.34;5083537;27;61980;-76
2022/04/13 06:01:14;;;;;;;;;7.50;7.50;;;;;-146.67;100.00;57155.34;5082987;27;61672;-75
2022/04/13 06:03:40;;;;;;;;;8.25;7.75;;;;;-146.67;100.00;57155.34;5082470;27;62052;-76
2022/04/13 06:06:05;;;;;;;;;8.25;7.25;;;;;-146.67;100.00;57155.34;5083794;27;61741;-76
2022/04/13 06:08:30;;;;;;;;;6.00;5.00;;;;;-146.67;100.00;57155.34;5084118;27;61759;-76
2022/04/13 06:10:56;;;;;;;;;8.75;8.75;;;;;-146.67;100.00;57155.34;5082409;28;61794;-76
2022/04/13 06:13:21;;;;;;;;;7.00;7.00;;;;;-146.67;100.00;57155.34;5082933;27;61748;-76
2022/04/13 06:15:47;;;;;;;;;10.50;9.50;;;;;-146.67;100.00;57155.34;5090949;27;62101;-76
2022/04/13 06:18:12;;;;;;;;;10.25;8.00;;;;;-146.67;100.00;57155.34;5063254;28;61843;-76
2022/04/13 06:20:37;;;;;;;;;12.50;8.50;;;;;-146.67;100.00;57155.34;5080312;28;61869;-75
2022/04/13 06:23:03;;;;;;;;;9.75;8.75;;;;;-146.67;100.00;57155.34;5082658;27;62734;-76
2022/04/13 06:25:29;;;;;;;;;5.00;5.00;;;;;-146.67;100.00;57155.34;5082779;27;61847;-76
2022/04/13 06:27:55;;;;;;;;;13.50;9.00;;;;;-146.67;100.00;57155.34;5096217;27;62145;-75
2022/04/13 06:30:20;;;;;;;;;8.25;8.25;;;;;-146.67;100.00;57155.34;5096485;27;62005;-81
2022/04/13 06:32:46;;;;;;;;;8.25;7.00;;;;;-146.67;100.00;57155.34;5081816;27;61950;-81
2022/04/13 06:35:16;;;;;;;;;10.50;9.50;;;;;-146.67;100.00;57155.34;5084018;27;61870;-81
2022/04/13 06:37:44;;;;;;;;;10.00;8.50;;;;;-146.67;100.00;57155.34;5081562;27;62051;-81
2022/04/13 06:40:11;;;;;;;;;11.50;11.00;;;;;-146.67;100.00;57155.34;5079092;28;61873;-81
2022/04/13 06:42:37;;;;;;;;;10.25;9.75;;;;;-146.67;100.00;57155.34;5081707;28;61942;-75
2022/04/13 06:45:09;;;;;;;;;12.75;10.00;;;;;-146.67;100.00;57155.34;5085006;28;61759;-76
2022/04/13 06:47:34;;;;;;;;;7.50;7.50;;;;;-146.67;100.00;57155.34;5082040;27;61782;-76
2022/04/13 06:50:00;;;;;;;;;10.25;9.75;;;;;-146.67;100.00;57155.34;5083538;27;62068;-76
2022/04/13 06:52:25;;;;;;;;;9.00;8.00;;;;;-146.67;100.00;57155.34;5084149;27;62576;-76
2022/04/13 06:54:51;;;;;;;;;16.75;13.25;;;;;-146.67;100.00;57155.34;5082588;27;61841;-75
2022/04/13 06:57:16;;;;;;;;;17.25;12.75;;;;;-146.67;100.00;57155.34;5081934;27;61996;-75
2022/04/13 06:59:42;;;;;;;;;11.25;11.25;;;;;-146.67;100.00;57155.34;5060979;28;61881;-73
2022/04/13 07:02:10;;;;;;;;;14.25;11.50;;;;;-146.67;100.00;57155.34;5078376;28;61922;-76
2022/04/13 07:04:39;;;;;;;;;10.00;10.00;;;;;-146.67;100.00;57155.34;5080077;27;62059;-74
2022/04/13 07:07:06;;;;;;;;;14.50;9.50;;;;;-146.67;100.00;57155.34;5082547;28;61917;-75
2022/04/13 07:09:32;;;;;;;;;11.50;9.00;;;;;-146.67;100.00;57155.34;5083926;28;61895;-75
2022/04/13 07:11:57;;;;;;;;;8.25;8.00;;;;;-146.67;100.00;57155.34;5080620;28;63596;-74
2022/04/13 07:14:23;;;;;;;;;11.50;11.50;;;;;-146.67;100.00;57155.34;5081960;27;61794;-75
2022/04/13 07:16:48;;;;;;;;;12.25;9.75;;;;;-146.67;100.00;57155.34;5082083;27;61790;-74
2022/04/13 07:19:14;;;;;;;;;11.25;8.25;;;;;-146.67;100.00;57155.34;5092263;27;62816;-73
2022/04/13 07:21:39;;;;;;;;;8.50;8.25;;;;;-146.67;100.00;57155.34;5102630;27;61647;-74
2022/04/13 07:24:05;;;;;;;;;10.75;10.25;;;;;-146.67;100.00;57155.34;5093006;27;61873;-74
2022/04/13 07:26:32;;;;;;;;;13.00;9.75;;;;;-146.67;100.00;57155.34;5082629;27;61910;-75
2022/04/13 07:28:57;;;;;;;;;11.25;11.25;;;;;-146.67;100.00;57155.34;5077442;27;62871;-75
2022/04/13 07:31:23;;;;;;;;;12.75;10.00;;;;;-146.67;100.00;57155.34;5081884;27;62171;-74
2022/04/13 07:33:48;;;;;;;;;12.75;12.75;;;;;-146.67;100.00;57155.34;5076156;27;62044;-75
2022/04/13 07:36:14;;;;;;;;;13.75;11.50;;;;;-146.67;100.00;57155.34;5070935;27;61689;-75
2022/04/13 07:38:42;;;;;;;;;11.00;11.00;;;;;-146.67;100.00;57155.34;5072870;27;61841;-76
2022/04/13 07:41:08;;;;;;;;;15.00;13.25;;;;;-146.67;100.00;57155.34;5088165;27;63453;-82
2022/04/13 07:43:33;;;;;;;;;13.00;11.25;;;;;-146.67;100.00;57155.34;5074836;27;61854;-83
2022/04/13 07:45:59;;;;;;;;;11.50;11.50;;;;;-146.67;100.00;57155.34;5071542;27;61989;-74
2022/04/13 07:48:24;;;;;;;;;16.00;12.50;;;;;-146.67;100.00;57155.34;5082219;27;62914;-74
2022/04/13 07:50:50;;;;;;;;;15.00;11.00;;;;;-146.67;100.00;57155.34;5078662;28;62959;-74
2022/04/13 07:53:15;;;;;;;;;16.75;12.25;;;;;-146.67;100.00;57155.34;5079408;27;61844;-74
2022/04/13 07:55:41;;;;;;;;;12.75;12.75;;;;;-146.67;100.00;57155.34;5078537;27;61857;-76
2022/04/13 07:58:07;;;;;;;;;19.25;17.75;;;;;-146.67;100.00;57155.34;5067397;28;61832;-74
2022/04/13 08:00:32;;;;;;;;;15.25;15.00;;;;;-146.67;100.00;57155.34;5067375;27;62729;-74
2022/04/13 08:02:58;;;;;;;;;15.75;15.00;;;;;-146.67;100.00;57155.34;5085647;27;62333;-75
2022/04/13 08:05:24;;;;;;;;;19.50;15.50;;;;;-146.67;100.00;57155.34;5075893;28;62094;-74
2022/04/13 08:07:50;;;;;;;;;20.50;17.75;;;;;-146.67;100.00;57155.34;5070792;28;62403;-74
2022/04/13 08:10:15;;;;;;;;;16.25;15.50;;;;;-146.67;100.00;57155.34;5073888;28;61869;-74
2022/04/13 08:12:50;;;;;;;;;16.25;13.75;;;;;-146.67;100.00;57155.34;5080058;27;61967;-73
2022/04/13 08:15:16;;;;;;;;;15.75;14.50;;;;;-146.67;100.00;57155.34;5097207;27;61910;-73
2022/04/13 08:17:41;;;;;;;;;12.75;12.75;;;;;-146.67;100.00;57155.34;5083047;27;61963;-75
2022/04/13 08:20:09;;;;;;;;;13.00;13.00;;;;;-146.67;100.00;57155.34;5090731;27;62015;-74
2022/04/13 08:22:35;;;;;;;;;18.25;13.75;;;;;-146.67;100.00;57155.34;5073853;28;62048;-75
2022/04/13 08:25:00;;;;;;;;;17.50;12.50;;;;;-146.67;100.00;57155.34;5076728;27;62112;-73
2022/04/13 08:27:26;;;;;;;;;11.75;11.00;;;;;-146.67;100.00;57155.34;5076658;27;62576;-72
2022/04/13 08:29:51;;;;;;;;;17.25;12.50;;;;;-146.67;100.00;57155.34;5086705;27;64910;-75
2022/04/13 08:32:18;;;;;;;;;12.75;12.75;;;;;-146.67;100.00;57155.34;5100870;27;62022;-74
2022/04/13 08:34:44;;;;;;;;;19.75;15.25;;;;;-146.67;100.00;57155.34;5102139;27;61784;-72
2022/04/13 08:37:10;;;;;;;;;23.00;18.75;;;;;-146.67;100.00;57155.34;5094115;27;61708;-74
2022/04/13 08:39:36;;;;;;;;;18.00;16.00;;;;;-146.67;100.00;57155.34;5101887;27;64592;-74
2022/04/13 08:42:33;;;;;;;;;21.25;16.00;;;;;-146.67;100.00;57155.34;5085158;27;62033;-74
2022/04/13 08:45:08;;;;;;;;;15.50;12.00;;;;;-146.67;100.00;57155.34;5078882;27;61963;-74
2022/04/13 08:47:42;;;;;;;;;13.50;12.00;;;;;-146.67;100.00;57155.34;5087171;27;62258;-74
2022/04/13 08:50:11;;;;;;;;;17.25;16.75;;;;;-146.67;100.00;57155.34;5068315;28;61954;-75
2022/04/13 08:52:39;;;;;;;;;15.50;12.75;;;;;-146.67;100.00;57155.34;5095555;27;62388;-74
2022/04/13 08:55:16;;;;;;;;;15.00;15.00;;;;;-146.67;100.00;57155.34;5087848;27;61852;-74
2022/04/13 08:57:49;;;;;;;;;12.75;12.75;;;;;-146.67;100.00;57155.34;5083543;27;62218;-75
2022/04/13 09:00:17;;;;;;;;;17.00;13.50;;;;;-146.67;100.00;57155.34;5094495;27;63776;-74
2022/04/13 09:03:05;;;;;;;;;16.25;13.50;;;;;-146.67;100.00;57155.34;5085281;27;62055;-74
2022/04/13 09:05:36;;;;;;;;;12.25;11.00;;;;;-146.67;100.00;57155.34;5087157;27;62002;-74
2022/04/13 09:08:15;;;;;;;;;16.50;13.00;;;;;-146.67;100.00;57155.34;5083823;27;62127;-74
2022/04/13 09:10:41;;;;;;;;;18.75;14.75;;;;;-146.67;100.00;57155.34;5091156;27;62871;-74
2022/04/13 09:13:11;;;;;;;;;14.00;14.00;;;;;-146.67;100.00;57155.34;5087237;27;61952;-75
2022/04/13 09:15:41;;;;;;;;;16.00;14.75;;;;;-146.67;100.00;57155.34;5086396;27;61873;-75
2022/04/13 09:18:08;;;;;;;;;13.00;13.00;;;;;-146.67;100.00;57155.34;5110328;27;62188;-77
2022/04/13 09:20:33;;;;;;;;;17.00;12.75;;;;;-146.67;100.00;57155.34;5086846;27;63606;-77
2022/04/13 09:23:00;;;;;;;;;16.00;15.50;;;;;-146.67;100.00;57155.34;5089050;27;61921;-77
2022/04/13 09:25:29;;;;;;;;;20.50;15.75;;;;;-146.67;100.00;57155.34;5097965;27;61845;-78
2022/04/13 09:27:55;;;;;;;;;21.25;18.75;;;;;-146.67;100.00;57155.34;5076025;27;62087;-78
2022/04/13 09:30:20;;;;;;;;;22.00;17.00;;;;;-146.67;100.00;57155.34;5078918;28;61927;-76
2022/04/13 09:32:46;;;;;;;;;18.00;15.25;;;;;-146.67;100.00;57155.34;5080483;27;62751;-78
2022/04/13 09:35:12;;;;;;;;;17.25;15.50;;;;;-146.67;100.00;57155.34;5096268;27;61900;-80
2022/04/13 09:37:38;;;;;;;;;15.50;12.50;;;;;-146.67;100.00;57155.34;5080073;27;61906;-84
2022/04/13 09:40:04;;;;;;;;;17.25;12.25;;;;;-146.67;100.00;57155.34;5082385;27;61983;-78
2022/04/13 09:42:30;;;;;;;;;10.75;8.25;;;;;-146.67;100.00;57155.34;5083071;28;62028;-75
2022/04/13 09:44:56;;;;;;;;;7.25;6.00;;;;;-146.67;100.00;57155.34;5083930;28;61996;-76
2022/04/13 09:47:28;;;;;;;;;6.00;5.25;;;;;-146.67;100.00;57155.34;5084777;27;62557;-76
2022/04/13 09:49:55;;;;;;;;;7.25;7.25;;;;;-146.67;100.00;57155.34;5082001;27;61930;-74
2022/04/13 09:52:39;;;;;;;;;6.50;5.50;;;;;-146.67;100.00;57155.34;5073224;28;61985;-77
2022/04/13 09:55:06;;;;;;;;;6.75;6.00;;;;;-146.67;100.00;57155.34;5078282;27;61932;-75
2022/04/13 09:57:32;;;;;;;;;8.50;7.25;;;;;-146.67;100.00;57155.34;5074552;27;61857;-75
2022/04/13 09:59:59;;;;;;;;;6.25;5.00;;;;;-146.67;100.00;57155.34;5082826;27;64355;-74
2022/04/13 10:02:39;;;;;;;;;10.00;8.75;;;;;-146.67;100.00;57155.34;5080957;27;61897;-75
2022/04/13 10:05:15;;;;;;;;;10.75;7.50;;;;;-146.67;100.00;57155.34;5076123;28;61896;-75
2022/04/13 10:07:41;;;;;;;;;10.50;8.75;;;;;-146.67;100.00;57155.34;5098578;27;62024;-75
2022/04/13 10:10:28;;;;;;;;;8.50;8.00;;;;;-146.67;100.00;57155.34;5081566;27;62039;-74
2022/04/13 10:12:54;;;;;;;;;13.75;11.75;;;;;-146.67;100.00;57155.34;5080337;27;61881;-75
2022/04/13 10:15:20;;;;;;;;;11.25;8.75;;;;;-146.67;100.00;57155.34;5081563;27;61907;-74
2022/04/13 10:17:46;;;;;;;;;15.75;11.75;;;;;-146.67;100.00;57155.34;5075235;27;62021;-75
2022/04/13 10:20:14;;;;;;;;;12.25;9.75;;;;;-146.67;100.00;57155.34;5073603;27;62660;-75
2022/04/13 10:23:01;;;;;;;;;10.25;7.75;;;;;-146.67;100.00;57155.34;5069839;28;62589;-74
2022/04/13 10:25:28;;;;;;;;;7.00;7.00;;;;;-146.67;100.00;57155.34;5073933;27;62186;-77
2022/04/13 10:27:59;;;;;;;;;11.50;7.75;;;;;-146.67;100.00;57155.34;5067938;27;61680;-75
2022/04/13 10:30:44;;;;;;;;;8.25;8.00;;;;;-146.67;100.00;57155.34;5079494;27;64044;-77
2022/04/13 10:33:12;;;;;;;;;8.25;8.25;;;;;-146.67;100.00;57155.34;5078412;27;62205;-78
2022/04/13 10:35:44;;;;;;;;;12.00;7.00;;;;;-146.67;100.00;57155.34;5077830;27;61855;-74
2022/04/13 10:38:12;;;;;;;;;7.00;6.50;;;;;-146.67;100.00;57155.34;5072695;27;62062;-74
2022/04/13 10:40:40;;;;;;;;;8.00;6.00;;;;;-146.67;100.00;57155.34;5080889;27;64850;-74
2022/04/13 10:43:07;;;;;;;;;8.00;7.50;;;;;-146.67;100.00;57155.34;5080048;27;61883;-75
2022/04/13 10:45:34;;;;;;;;;8.75;8.00;;;;;-146.67;100.00;57155.34;5082606;27;62011;-74
2022/04/13 10:48:03;;;;;;;;;8.00;7.00;;;;;-146.67;100.00;57155.34;5093582;27;61916;-74
2022/04/13 10:50:38;;;;;;;;;7.50;6.50;;;;;-146.67;100.00;57155.34;5081599;28;62095;-74
2022/04/13 10:53:17;;;;;;;;;5.00;5.00;;;;;-146.67;100.00;57155.34;5082886;27;62288;-73
2022/04/13 10:55:45;;;;;;;;;3.50;3.50;;;;;-146.67;100.00;57155.34;5085841;27;61944;-74
2022/04/13 10:58:23;;;;;;;;;6.00;4.00;;;;;-146.67;100.00;57155.34;5074943;28;61944;-74
2022/04/13 11:01:02;;;;;;;;;4.50;3.00;;;;;-146.67;100.00;57155.34;5066569;27;63284;-77
2022/04/13 11:03:32;;;;;;;;;5.75;4.00;;;;;-146.67;100.00;57155.34;5068198;27;61731;-75